Ana Sayfa
METAR-TAF:

METAR-TAF

Havaalanları :

Mackall Army Airfield

Camp Mackall, Kuzey Carolina, Amerika Birleşik Devletleri

Enlem: 35-02N, Boylam: 079-30W, yükseklik: 115 m

Güncel hava durumu gözlemi

Rapor saat 23:56 UTC de 14 dakika önce yapıldı.
Rüzgar doğu/kuzeydoğudan 6 kt
Sıcaklık 5°C
Nem 56%
Basınç 1033 hPa
Görüş mesafesi: 16.1 km
2800 ft yükseklikte çok bulutlu

METAR: KHFF 122356Z AUTO 07006KT 10SM OVC028 05/M03 A3050 RMK AO2 SLP348 T00521031 10085 20046 58009 $

Saat: 19:10 (00:10 UTC)


TAF: eksik

4.000'den fazla havaalanı için hava durumu gözlemleri ve tahminleri (METAR ve TAF raporları).

Kullanılabilir istasyonlar harita üzerinde sarı ve kırmızı noktalarla gösterilir.

İstasyonun adını görmek için fareyi noktanın üzerinde gezdirin.

Sonrasında hava gözlem ve tahminlerini görmek için tıklayın.

Haritayı değiştirmek için: yaklaştırmak için siyah artı işaretli yeşil düğmeye ve uzaklaştırmak için de eksi işaretli düğmeye hızla tıklayın; bitişik haritalar için yeşil okları kullanın.


METAR-TAF: